Terminal Aerodrome Forecast
Issued by NWS Sterling, VA

Home | Current Version | Previous Version | Text Only | Print | Product List | Glossary On
Versions: 1 2 3 4 5 6 7 8 9 10 11 12 13 14 15 16 17 18 19 20 21 22 23 24
000
FTUS41 KLWX 252100 AAA
TAFIAD
TAF AMD
KIAD 252101Z 2521/2624 VRB03KT P6SM SCT150 BKN250
     FM260500 36005KT P6SM -RA OVC090
     FM260900 02007KT P6SM -RA OVC050
     FM261200 02008KT 1 1/2SM -RASN OVC015
     FM261500 02008KT 1SM RASN OVC003
     FM261800 34009KT 1/2SM SN OVC003
     FM262100 33008KT P6SM OVC008=

USA.gov is the U.S. government's official web portal to all federal, state and local government web resources and services.